createdAt,value
2023-05-16T00:02:14.477Z,100446.97
2023-05-16T00:04:42.462Z,100447.84
2023-05-16T00:07:10.136Z,100442.66
2023-05-16T00:09:37.685Z,100424.13
2023-05-16T00:12:06.034Z,100432.69
2023-05-16T00:14:34.785Z,100444.97
2023-05-16T00:17:05.007Z,100431.72
2023-05-16T00:19:32.968Z,100427.50
2023-05-16T00:22:00.753Z,100449.28
2023-05-16T00:24:28.335Z,100433.63
2023-05-16T00:26:55.934Z,100433.28
2023-05-16T00:29:24.587Z,100442.06
2023-05-16T00:31:52.162Z,100436.69
2023-05-16T00:34:21.458Z,100439.16
2023-05-16T00:36:52.013Z,100428.44
2023-05-16T00:39:19.738Z,100441.47
2023-05-16T00:41:47.715Z,100436.22
2023-05-16T00:44:15.857Z,100421.28
2023-05-16T00:46:44.136Z,100402.84
2023-05-16T00:49:12.978Z,100430.84
2023-05-16T00:51:41.000Z,100417.69
2023-05-16T00:54:08.658Z,100428.97
2023-05-16T00:56:37.100Z,100427.16
2023-05-16T00:59:04.874Z,100424.44
2023-05-16T01:01:35.213Z,100412.94
2023-05-16T01:04:03.724Z,100422.69
2023-05-16T01:06:31.604Z,100418.38
2023-05-16T01:08:59.670Z,100415.84
2023-05-16T01:11:31.728Z,100420.16
2023-05-16T01:13:59.200Z,100419.19
2023-05-16T01:16:37.944Z,100426.88
2023-05-16T01:19:53.389Z,100438.94
2023-05-16T01:22:34.747Z,100441.88
2023-05-16T01:25:17.583Z,100429.91
2023-05-16T01:27:46.118Z,100431.47
2023-05-16T01:30:16.732Z,100449.56
2023-05-16T01:32:44.961Z,100446.28
2023-05-16T01:35:16.197Z,100432.44
2023-05-16T01:38:11.606Z,100446.72
2023-05-16T01:40:44.608Z,100434.38
2023-05-16T01:43:17.259Z,100440.66
2023-05-16T01:45:53.772Z,100444.34
2023-05-16T01:48:31.405Z,100446.03
2023-05-16T01:51:02.549Z,100445.84
2023-05-16T01:53:37.712Z,100445.91
2023-05-16T01:56:14.129Z,100444.88
2023-05-16T01:58:43.527Z,100443.00
2023-05-16T02:01:13.600Z,100430.69
2023-05-16T02:03:41.629Z,100441.88
2023-05-16T02:06:09.369Z,100443.63
2023-05-16T02:08:37.036Z,100434.19
2023-05-16T02:11:04.692Z,100447.50
2023-05-16T02:13:32.491Z,100432.69
2023-05-16T02:16:05.673Z,100436.97
2023-05-16T02:18:33.551Z,100436.91
2023-05-16T02:21:01.372Z,100450.03
2023-05-16T02:23:29.010Z,100451.84
2023-05-16T02:25:56.604Z,100445.66
2023-05-16T02:28:24.233Z,100453.66
2023-05-16T02:31:00.117Z,100448.25
2023-05-16T02:33:29.070Z,100444.88
2023-05-16T02:35:56.685Z,100445.63
2023-05-16T02:38:27.447Z,100445.63
2023-05-16T02:40:56.719Z,100443.03
2023-05-16T02:43:24.280Z,100455.53
2023-05-16T02:45:53.226Z,100442.50
2023-05-16T02:48:21.083Z,100453.09
2023-05-16T02:50:48.671Z,100453.47
2023-05-16T02:53:16.316Z,100447.63
2023-05-16T02:55:43.962Z,100454.16
2023-05-16T02:58:11.481Z,100451.63
2023-05-16T03:00:39.092Z,100444.13
2023-05-16T03:03:06.689Z,100450.44
2023-05-16T03:05:34.376Z,100457.81
2023-05-16T03:08:01.972Z,100445.91
2023-05-16T03:10:29.702Z,100436.53
2023-05-16T03:12:57.654Z,100442.00
2023-05-16T03:15:25.522Z,100444.91
2023-05-16T03:17:53.190Z,100448.56
2023-05-16T03:20:21.237Z,100441.91
2023-05-16T03:22:49.020Z,100443.88
2023-05-16T03:25:16.700Z,100448.50
2023-05-16T03:27:44.211Z,100450.50
2023-05-16T03:30:13.178Z,100441.50
2023-05-16T03:32:41.011Z,100443.69
2023-05-16T03:35:09.054Z,100452.78
2023-05-16T03:37:37.340Z,100433.22
2023-05-16T03:40:05.911Z,100431.81
2023-05-16T03:42:33.626Z,100446.25
2023-05-16T03:45:01.353Z,100445.75
2023-05-16T03:47:32.042Z,100447.94
2023-05-16T03:49:59.852Z,100448.41
2023-05-16T03:52:27.370Z,100447.94
2023-05-16T03:54:54.945Z,100434.34
2023-05-16T03:57:22.694Z,100446.03
2023-05-16T03:59:50.293Z,100451.47
2023-05-16T04:02:18.853Z,100450.75
2023-05-16T04:04:46.961Z,100447.44
2023-05-16T04:07:14.477Z,100433.56
2023-05-16T04:09:42.076Z,100437.09
2023-05-16T04:12:09.605Z,100452.09
2023-05-16T04:14:37.131Z,100430.16
2023-05-16T04:17:05.244Z,100457.44
2023-05-16T04:19:32.882Z,100452.25
2023-05-16T04:22:00.481Z,100467.13
2023-05-16T04:24:29.136Z,100462.72
2023-05-16T04:26:56.957Z,100478.63
2023-05-16T04:29:24.434Z,100477.00
2023-05-16T04:31:52.382Z,100486.38
2023-05-16T04:34:20.058Z,100488.19
2023-05-16T04:36:47.766Z,100477.97
2023-05-16T04:39:15.277Z,100480.81
2023-05-16T04:41:43.221Z,100479.31
2023-05-16T04:44:11.330Z,100474.97
2023-05-16T04:46:39.444Z,100483.81
2023-05-16T04:49:07.086Z,100483.91
2023-05-16T04:51:35.275Z,100483.19
2023-05-16T04:54:03.053Z,100473.91
2023-05-16T04:56:30.809Z,100488.03
2023-05-16T04:58:58.352Z,100488.03
2023-05-16T05:01:25.981Z,100489.84
2023-05-16T05:03:53.714Z,100497.94
2023-05-16T05:06:21.612Z,100490.34
2023-05-16T05:08:49.358Z,100489.03
2023-05-16T05:11:17.586Z,100492.06
2023-05-16T05:13:45.922Z,100488.84
2023-05-16T05:16:13.726Z,100487.31
2023-05-16T05:18:41.349Z,100493.66
2023-05-16T05:21:08.942Z,100493.13
2023-05-16T05:23:36.500Z,100481.97
2023-05-16T05:26:04.252Z,100492.63
2023-05-16T05:28:31.861Z,100499.66
2023-05-16T05:30:59.706Z,100498.72
2023-05-16T05:33:29.651Z,100506.41
2023-05-16T05:35:57.918Z,100503.69
2023-05-16T05:38:25.891Z,100492.41
2023-05-16T05:40:53.763Z,100497.00
2023-05-16T05:43:21.349Z,100506.72
2023-05-16T05:45:49.098Z,100495.25
2023-05-16T05:48:16.912Z,100513.59
2023-05-16T05:50:44.594Z,100513.88
2023-05-16T05:53:12.269Z,100513.88
2023-05-16T05:55:42.331Z,100512.13
2023-05-16T05:58:09.981Z,100504.97
2023-05-16T06:00:38.179Z,100508.47
2023-05-16T06:03:06.209Z,100519.84
2023-05-16T06:05:33.857Z,100511.19
2023-05-16T06:08:01.464Z,100511.41
2023-05-16T06:10:29.964Z,100506.25
2023-05-16T06:12:57.718Z,100513.22
2023-05-16T06:15:26.914Z,100523.63
2023-05-16T06:17:54.732Z,100529.00
2023-05-16T06:20:22.480Z,100514.31
2023-05-16T06:22:49.987Z,100534.44
2023-05-16T06:25:17.768Z,100522.44
2023-05-16T06:27:45.401Z,100511.88
2023-05-16T06:30:13.294Z,100531.88
2023-05-16T06:32:41.704Z,100527.66
2023-05-16T06:35:09.983Z,100526.88
2023-05-16T06:37:37.674Z,100503.53
2023-05-16T06:40:05.932Z,100511.69
2023-05-16T06:42:34.058Z,100524.16
2023-05-16T06:45:01.815Z,100518.34
2023-05-16T06:47:34.675Z,100519.44
2023-05-16T06:50:02.615Z,100514.38
2023-05-16T06:52:32.715Z,100500.53
2023-05-16T06:55:00.394Z,100517.19
2023-05-16T06:57:29.366Z,100509.28
2023-05-16T06:59:57.132Z,100515.41
2023-05-16T07:02:24.924Z,100497.97
2023-05-16T07:04:52.679Z,100511.06
2023-05-16T07:07:20.264Z,100513.63
2023-05-16T07:09:47.972Z,100506.59
2023-05-16T07:12:15.588Z,100511.59
2023-05-16T07:14:43.814Z,100501.09
2023-05-16T07:17:11.893Z,100490.47
2023-05-16T07:19:39.773Z,100511.22
2023-05-16T07:22:07.424Z,100497.28
2023-05-16T07:24:36.502Z,100492.94
2023-05-16T07:27:04.429Z,100500.66
2023-05-16T07:29:32.039Z,100498.69
2023-05-16T07:31:59.626Z,100498.38
2023-05-16T07:34:27.411Z,100499.06
2023-05-16T07:36:54.985Z,100494.22
2023-05-16T07:39:22.999Z,100500.56
2023-05-16T07:41:50.626Z,100493.88
2023-05-16T07:44:18.232Z,100489.38
2023-05-16T07:46:46.203Z,100488.00
2023-05-16T07:49:13.848Z,100495.72
2023-05-16T07:51:41.353Z,100496.72
2023-05-16T07:54:09.032Z,100490.56
2023-05-16T07:56:36.841Z,100495.44
2023-05-16T07:59:06.055Z,100486.19
2023-05-16T08:01:33.870Z,100479.16
2023-05-16T08:04:01.469Z,100484.03
2023-05-16T08:06:29.971Z,100490.16
2023-05-16T08:08:57.979Z,100494.44
2023-05-16T08:11:25.710Z,100483.63
2023-05-16T08:13:53.511Z,100496.09
2023-05-16T08:16:21.303Z,100478.63
2023-05-16T08:18:48.961Z,100484.41
2023-05-16T08:21:16.900Z,100475.25
2023-05-16T08:23:44.722Z,100469.56
2023-05-16T08:26:12.838Z,100494.03
2023-05-16T08:28:40.635Z,100485.22
2023-05-16T08:31:08.454Z,100477.81
2023-05-16T08:33:36.035Z,100465.47
2023-05-16T08:36:03.959Z,100467.97
2023-05-16T08:38:31.566Z,100466.81
2023-05-16T08:40:59.223Z,100483.34
2023-05-16T08:43:26.898Z,100465.66
2023-05-16T08:45:54.634Z,100467.06
2023-05-16T08:48:24.559Z,100466.00
2023-05-16T08:50:53.441Z,100457.84
2023-05-16T08:53:31.260Z,100466.78
2023-05-16T08:56:00.527Z,100467.56
2023-05-16T08:58:30.160Z,100468.78
2023-05-16T09:00:58.151Z,100446.53
2023-05-16T09:03:26.011Z,100451.78
2023-05-16T09:05:53.737Z,100443.88
2023-05-16T09:08:21.563Z,100461.81
2023-05-16T09:10:49.230Z,100459.81
2023-05-16T09:13:17.101Z,100455.88
2023-05-16T09:15:45.747Z,100446.69
2023-05-16T09:18:16.270Z,100455.09
2023-05-16T09:20:50.365Z,100451.03
2023-05-16T09:23:24.769Z,100450.09
2023-05-16T09:25:56.457Z,100462.00
2023-05-16T09:28:26.401Z,100462.13
2023-05-16T09:30:55.848Z,100435.16
2023-05-16T09:33:24.013Z,100449.44
2023-05-16T09:36:01.910Z,100442.47
2023-05-16T09:38:29.978Z,100442.81
2023-05-16T09:40:57.638Z,100435.25
2023-05-16T09:43:28.117Z,100435.53
2023-05-16T09:45:59.921Z,100446.06
2023-05-16T09:48:28.616Z,100447.31
2023-05-16T09:50:57.979Z,100416.72
2023-05-16T09:53:30.584Z,100421.31
2023-05-16T09:56:06.866Z,100423.75
2023-05-16T09:58:36.641Z,100413.72
2023-05-16T10:01:06.029Z,100425.53
2023-05-16T10:03:39.621Z,100407.97
2023-05-16T10:06:08.269Z,100413.31
2023-05-16T10:08:37.672Z,100413.53
2023-05-16T10:11:07.038Z,100402.69
2023-05-16T10:13:36.252Z,100397.69
2023-05-16T10:16:11.446Z,100396.63
2023-05-16T10:18:40.896Z,100397.34
2023-05-16T10:21:13.669Z,100401.69
2023-05-16T10:23:48.418Z,100388.69
2023-05-16T10:26:17.956Z,100403.75
2023-05-16T10:28:46.023Z,100388.44
2023-05-16T10:31:14.787Z,100383.63
2023-05-16T10:33:42.930Z,100386.63
2023-05-16T10:36:11.442Z,100375.94
2023-05-16T10:38:40.466Z,100378.44
2023-05-16T10:41:08.982Z,100381.03
2023-05-16T10:43:36.936Z,100394.91
2023-05-16T10:46:10.013Z,100388.59
2023-05-16T10:48:39.739Z,100364.94
2023-05-16T10:51:22.456Z,100374.47
2023-05-16T10:54:06.401Z,100370.69
2023-05-16T10:56:35.353Z,100368.81
2023-05-16T10:59:04.981Z,100360.31
2023-05-16T11:01:36.488Z,100373.63
2023-05-16T11:04:10.385Z,100369.19
2023-05-16T11:06:41.185Z,100364.47
2023-05-16T11:09:22.424Z,100360.94
2023-05-16T11:11:53.392Z,100360.34
2023-05-16T11:14:42.401Z,100357.44
2023-05-16T11:17:15.604Z,100359.03
2023-05-16T11:19:51.418Z,100370.94
2023-05-16T11:22:19.190Z,100374.50
2023-05-16T11:25:09.307Z,100365.44
2023-05-16T11:27:43.896Z,100360.56
2023-05-16T11:30:16.160Z,100358.47
2023-05-16T11:32:46.054Z,100340.78
2023-05-16T11:35:16.024Z,100345.72
2023-05-16T11:37:45.313Z,100333.59
2023-05-16T11:40:14.801Z,100342.94
2023-05-16T11:42:44.943Z,100338.00
2023-05-16T11:45:21.571Z,100323.22
2023-05-16T11:47:49.836Z,100341.34
2023-05-16T11:50:23.839Z,100344.38
2023-05-16T11:52:54.224Z,100338.81
2023-05-16T11:55:40.199Z,100340.31
2023-05-16T11:58:10.446Z,100339.16
2023-05-16T12:00:48.965Z,100343.28
2023-05-16T12:03:18.610Z,100334.59
2023-05-16T12:06:00.980Z,100345.25
2023-05-16T12:08:28.995Z,100341.44
2023-05-16T12:10:56.893Z,100338.41
2023-05-16T12:13:25.809Z,100340.25
2023-05-16T12:15:53.724Z,100342.38
2023-05-16T12:18:22.158Z,100350.16
2023-05-16T12:20:50.204Z,100329.50
2023-05-16T12:23:17.809Z,100335.75
2023-05-16T12:25:47.522Z,100317.53
2023-05-16T12:28:16.305Z,100340.44
2023-05-16T12:30:46.147Z,100334.31
2023-05-16T12:33:16.484Z,100326.25
2023-05-16T12:35:45.958Z,100315.66
2023-05-16T12:38:15.260Z,100336.34
2023-05-16T12:40:44.440Z,100335.25
2023-05-16T12:43:23.199Z,100342.88
2023-05-16T12:45:58.637Z,100335.16
2023-05-16T12:48:35.875Z,100319.94
2023-05-16T12:51:17.956Z,100321.03
2023-05-16T12:54:05.825Z,100325.22
2023-05-16T12:56:40.790Z,100314.25
2023-05-16T12:59:09.435Z,100323.31
2023-05-16T13:01:37.335Z,100313.19
2023-05-16T13:04:05.958Z,100330.91
2023-05-16T13:06:48.830Z,100321.41
2023-05-16T13:09:18.224Z,100310.13
2023-05-16T13:11:46.125Z,100316.22
2023-05-16T13:14:13.838Z,100314.56
2023-05-16T13:16:41.650Z,100307.63
2023-05-16T13:19:09.754Z,100312.06
2023-05-16T13:21:37.677Z,100303.38
2023-05-16T13:24:05.782Z,100306.00
2023-05-16T13:26:33.508Z,100313.84
2023-05-16T13:29:03.382Z,100331.31
2023-05-16T13:31:31.141Z,100314.78
2023-05-16T13:33:59.157Z,100313.00
2023-05-16T13:36:27.009Z,100314.78
2023-05-16T13:38:55.227Z,100309.53
2023-05-16T13:41:22.962Z,100299.94
2023-05-16T13:43:50.810Z,100312.19
2023-05-16T13:46:18.510Z,100308.69
2023-05-16T13:48:46.139Z,100293.88
2023-05-16T13:51:13.912Z,100305.19
2023-05-16T13:53:41.551Z,100316.53
2023-05-16T13:56:09.215Z,100289.50
2023-05-16T13:58:43.020Z,100301.69
2023-05-16T14:01:21.456Z,100293.81
2023-05-16T14:03:49.111Z,100285.09
2023-05-16T14:06:16.817Z,100303.38
2023-05-16T14:08:44.468Z,100290.28
2023-05-16T14:11:12.071Z,100301.59
2023-05-16T14:13:40.477Z,100276.34
2023-05-16T14:16:10.512Z,100299.84
2023-05-16T14:18:38.195Z,100278.91
2023-05-16T14:21:07.174Z,100302.41
2023-05-16T14:23:36.230Z,100298.91
2023-05-16T14:26:06.955Z,100282.38
2023-05-16T14:28:35.486Z,100287.56
2023-05-16T14:31:03.348Z,100283.19
2023-05-16T14:33:33.501Z,100295.41
2023-05-16T14:36:04.776Z,100276.16
2023-05-16T14:38:36.750Z,100276.16
2023-05-16T14:41:04.376Z,100262.22
2023-05-16T14:43:32.593Z,100284.94
2023-05-16T14:46:00.238Z,100283.09
2023-05-16T14:48:28.121Z,100283.97
2023-05-16T14:50:55.721Z,100299.66
2023-05-16T14:53:24.038Z,100292.66
2023-05-16T14:55:51.931Z,100280.41
2023-05-16T14:58:23.079Z,100295.22
2023-05-16T15:00:51.680Z,100304.75
2023-05-16T15:03:20.376Z,100287.31
2023-05-16T15:05:48.399Z,100296.88
2023-05-16T15:08:16.162Z,100282.94
2023-05-16T15:10:43.958Z,100281.19
2023-05-16T15:13:11.601Z,100294.28
2023-05-16T15:15:39.260Z,100293.38
2023-05-16T15:18:07.078Z,100279.44
2023-05-16T15:20:34.729Z,100285.50
2023-05-16T15:23:02.302Z,100289.84
2023-05-16T15:25:30.259Z,100293.31
2023-05-16T15:27:58.125Z,100286.28
2023-05-16T15:30:25.755Z,100299.34
2023-05-16T15:32:53.566Z,100287.09
2023-05-16T15:35:21.235Z,100292.28
2023-05-16T15:37:48.977Z,100287.03
2023-05-16T15:40:19.321Z,100296.63
2023-05-16T15:42:48.984Z,100300.09
2023-05-16T15:45:16.899Z,100292.25
2023-05-16T15:47:44.663Z,100294.03
2023-05-16T15:50:13.621Z,100290.50
2023-05-16T15:52:41.505Z,100280.88
2023-05-16T15:55:09.623Z,100286.97
2023-05-16T15:57:37.811Z,100293.03
2023-05-16T16:00:06.185Z,100286.97
2023-05-16T16:02:40.426Z,100285.19
2023-05-16T16:05:08.715Z,100286.88
2023-05-16T16:07:36.771Z,100280.72
2023-05-16T16:10:04.635Z,100305.97
2023-05-16T16:12:32.873Z,100280.66
2023-05-16T16:15:02.462Z,100295.47
2023-05-16T16:17:33.450Z,100297.16
2023-05-16T16:20:01.231Z,100287.53
2023-05-16T16:22:29.390Z,100306.63
2023-05-16T16:24:57.150Z,100311.84
2023-05-16T16:27:24.886Z,100297.00
2023-05-16T16:29:52.859Z,100308.28
2023-05-16T16:32:20.767Z,100331.75
2023-05-16T16:34:48.458Z,100324.81
2023-05-16T16:37:16.209Z,100320.47
2023-05-16T16:39:43.836Z,100309.97
2023-05-16T16:42:11.713Z,100336.06
2023-05-16T16:44:39.423Z,100337.75
2023-05-16T16:47:07.393Z,100335.91
2023-05-16T16:49:35.197Z,100340.25
2023-05-16T16:52:02.820Z,100329.75
2023-05-16T16:54:30.602Z,100320.13
2023-05-16T16:56:58.185Z,100331.44
2023-05-16T16:59:25.765Z,100329.69
2023-05-16T17:01:53.541Z,100339.22
2023-05-16T17:04:21.488Z,100335.56
2023-05-16T17:06:49.231Z,100350.41
2023-05-16T17:09:18.531Z,100346.94
2023-05-16T17:11:46.926Z,100331.25
2023-05-16T17:14:15.265Z,100338.13
2023-05-16T17:16:43.095Z,100341.50
2023-05-16T17:19:11.564Z,100324.00
2023-05-16T17:21:40.898Z,100349.22
2023-05-16T17:24:08.909Z,100339.59
2023-05-16T17:26:36.841Z,100343.00
2023-05-16T17:29:06.053Z,100345.56
2023-05-16T17:31:38.098Z,100344.63
2023-05-16T17:34:08.921Z,100341.09
2023-05-16T17:36:37.268Z,100341.00
2023-05-16T17:39:08.216Z,100342.75
2023-05-16T17:41:36.390Z,100338.22
2023-05-16T17:44:07.033Z,100355.63
2023-05-16T17:46:37.068Z,100359.88
2023-05-16T17:49:07.762Z,100357.25
2023-05-16T17:51:52.641Z,100364.16
2023-05-16T17:54:22.208Z,100360.59
2023-05-16T17:56:51.100Z,100368.38
2023-05-16T17:59:19.420Z,100370.94
2023-05-16T18:01:47.615Z,100367.41
2023-05-16T18:04:15.441Z,100369.06
2023-05-16T18:06:44.242Z,100370.78
2023-05-16T18:09:12.092Z,100376.75
2023-05-16T18:11:40.780Z,100381.94
2023-05-16T18:14:14.150Z,100381.03
2023-05-16T18:16:41.954Z,100360.00
2023-05-16T18:19:14.035Z,100378.31
2023-05-16T18:21:44.464Z,100378.28
2023-05-16T18:24:13.259Z,100368.59
2023-05-16T18:26:41.027Z,100361.56
2023-05-16T18:29:10.746Z,100378.16
2023-05-16T18:31:41.324Z,100379.00
2023-05-16T18:34:09.744Z,100383.25
2023-05-16T18:36:37.561Z,100384.13
2023-05-16T18:39:05.731Z,100383.19
2023-05-16T18:41:33.444Z,100378.78
2023-05-16T18:44:02.269Z,100392.63
2023-05-16T18:46:44.301Z,100387.38
2023-05-16T18:49:13.689Z,100390.84
2023-05-16T18:51:41.591Z,100393.38
2023-05-16T18:54:09.603Z,100396.81
2023-05-16T18:56:37.290Z,100394.16
2023-05-16T18:59:05.144Z,100381.84
2023-05-16T19:01:33.087Z,100398.41
2023-05-16T19:04:01.052Z,100383.56
2023-05-16T19:06:29.017Z,100389.66
2023-05-16T19:08:56.686Z,100394.03
2023-05-16T19:11:24.326Z,100400.03
2023-05-16T19:13:51.962Z,100399.94
2023-05-16T19:16:19.567Z,100389.41
2023-05-16T19:18:47.394Z,100380.63
2023-05-16T19:21:15.870Z,100392.84
2023-05-16T19:23:44.287Z,100397.16
2023-05-16T19:26:11.992Z,100392.78
2023-05-16T19:28:40.959Z,100372.66
2023-05-16T19:31:10.153Z,100376.06
2023-05-16T19:33:38.216Z,100392.59
2023-05-16T19:36:06.424Z,100368.97
2023-05-16T19:38:34.040Z,100374.16
2023-05-16T19:41:01.869Z,100368.06
2023-05-16T19:43:29.925Z,100391.56
2023-05-16T19:45:58.283Z,100394.00
2023-05-16T19:48:26.663Z,100400.97
2023-05-16T19:50:54.391Z,100388.72
2023-05-16T19:53:22.620Z,100396.59
2023-05-16T19:55:50.363Z,100399.09
2023-05-16T19:58:18.175Z,100387.69
2023-05-16T20:00:47.128Z,100392.03
2023-05-16T20:03:14.839Z,100384.97
2023-05-16T20:05:42.904Z,100402.38
2023-05-16T20:08:12.698Z,100398.88
2023-05-16T20:10:42.412Z,100408.31
2023-05-16T20:13:10.918Z,100410.81
2023-05-16T20:15:38.703Z,100402.84
2023-05-16T20:18:06.789Z,100409.88
2023-05-16T20:20:34.863Z,100411.56
2023-05-16T20:23:02.819Z,100402.69
2023-05-16T20:25:32.197Z,100412.34
2023-05-16T20:28:00.102Z,100407.91
2023-05-16T20:30:28.523Z,100413.94
2023-05-16T20:32:56.607Z,100399.94
2023-05-16T20:35:24.817Z,100395.53
2023-05-16T20:37:52.434Z,100406.84
2023-05-16T20:40:20.540Z,100412.94
2023-05-16T20:42:49.495Z,100413.75
2023-05-16T20:45:17.309Z,100409.38
2023-05-16T20:47:45.231Z,100411.97
2023-05-16T20:50:13.028Z,100414.56
2023-05-16T20:52:40.661Z,100412.78
2023-05-16T20:55:09.152Z,100410.97
2023-05-16T20:57:36.791Z,100403.16
2023-05-16T21:00:05.360Z,100400.41
2023-05-16T21:02:37.960Z,100415.16
2023-05-16T21:05:20.186Z,100410.00
2023-05-16T21:07:52.989Z,100417.84
2023-05-16T21:10:20.871Z,100415.16
2023-05-16T21:12:50.323Z,100416.84
2023-05-16T21:15:18.414Z,100420.28
2023-05-16T21:17:46.637Z,100412.44
2023-05-16T21:20:14.385Z,100411.63
2023-05-16T21:22:42.665Z,100403.84
2023-05-16T21:25:10.535Z,100402.06
2023-05-16T21:27:38.488Z,100402.00
2023-05-16T21:30:07.004Z,100400.25
2023-05-16T21:32:34.745Z,100395.91
2023-05-16T21:35:04.365Z,100397.69
2023-05-16T21:37:34.148Z,100394.94
2023-05-16T21:40:02.097Z,100393.13
2023-05-16T21:42:32.375Z,100390.44
2023-05-16T21:45:00.150Z,100387.69
2023-05-16T21:47:27.826Z,100385.94
2023-05-16T21:49:55.520Z,100378.97
2023-05-16T21:52:23.182Z,100387.47
2023-05-16T21:54:52.046Z,100379.53
2023-05-16T21:57:20.070Z,100372.50
2023-05-16T21:59:50.638Z,100389.00
2023-05-16T22:02:22.915Z,100381.16
2023-05-16T22:04:52.439Z,100376.56
2023-05-16T22:07:20.447Z,100384.47
2023-05-16T22:09:50.974Z,100390.38
2023-05-16T22:12:18.740Z,100378.06
2023-05-16T22:14:46.420Z,100389.38
2023-05-16T22:17:14.078Z,100376.97
2023-05-16T22:19:42.550Z,100382.09
2023-05-16T22:22:11.420Z,100370.72
2023-05-16T22:24:39.080Z,100388.22
2023-05-16T22:27:06.810Z,100384.75
2023-05-16T22:29:38.300Z,100370.72
2023-05-16T22:32:10.829Z,100379.34
2023-05-16T22:34:41.676Z,100382.72
2023-05-16T22:37:10.011Z,100368.69
2023-05-16T22:39:37.719Z,100376.47
2023-05-16T22:42:05.694Z,100378.22
2023-05-16T22:44:33.416Z,100372.84
2023-05-16T22:47:00.922Z,100372.84
2023-05-16T22:49:28.553Z,100383.31
2023-05-16T22:51:56.268Z,100371.94
2023-05-16T22:54:23.895Z,100385.00
2023-05-16T22:56:51.673Z,100388.34
2023-05-16T22:59:19.340Z,100373.47
2023-05-16T23:01:46.964Z,100393.38
2023-05-16T23:04:14.602Z,100397.66
2023-05-16T23:06:42.159Z,100389.75
2023-05-16T23:09:09.845Z,100390.56
2023-05-16T23:11:37.405Z,100384.47
2023-05-16T23:14:05.158Z,100386.03
2023-05-16T23:16:32.733Z,100400.91
2023-05-16T23:19:00.505Z,100396.59
2023-05-16T23:21:28.284Z,100389.66
2023-05-16T23:23:55.922Z,100390.41
2023-05-16T23:26:23.533Z,100398.94
2023-05-16T23:28:51.583Z,100395.47
2023-05-16T23:31:19.346Z,100386.63
2023-05-16T23:33:47.076Z,100401.34
2023-05-16T23:36:14.671Z,100397.88
2023-05-16T23:38:42.374Z,100392.47
2023-05-16T23:41:09.957Z,100402.03
2023-05-16T23:43:37.659Z,100402.91
2023-05-16T23:46:05.407Z,100397.66
2023-05-16T23:48:33.312Z,100387.09
2023-05-16T23:51:01.209Z,100389.69
2023-05-16T23:53:31.145Z,100389.56
2023-05-16T23:55:58.758Z,100390.50
2023-05-16T23:58:26.495Z,100403.50
